sensor_id;sensor_type;location;lat;lon;timestamp;pressure;altitude;pressure_sealevel;temperature;humidity
56270;BME280;42176;43.240;27.880;2023-01-09T00:00:09;100838.16;;;7.65;100.00
56270;BME280;42176;43.240;27.880;2023-01-09T00:02:35;100833.75;;;7.59;100.00
56270;BME280;42176;43.240;27.880;2023-01-09T00:05:06;100840.78;;;7.57;100.00
56270;BME280;42176;43.240;27.880;2023-01-09T00:07:31;100832.88;;;7.65;100.00
56270;BME280;42176;43.240;27.880;2023-01-09T00:09:57;100841.69;;;7.70;100.00
56270;BME280;42176;43.240;27.880;2023-01-09T00:12:22;100838.16;;;7.71;100.00
56270;BME280;42176;43.240;27.880;2023-01-09T00:14:48;100834.63;;;7.69;100.00
56270;BME280;42176;43.240;27.880;2023-01-09T00:17:13;100837.28;;;7.69;100.00
56270;BME280;42176;43.240;27.880;2023-01-09T00:19:39;100842.53;;;7.71;100.00
56270;BME280;42176;43.240;27.880;2023-01-09T00:22:04;100835.53;;;7.67;100.00
56270;BME280;42176;43.240;27.880;2023-01-09T00:24:31;100831.13;;;7.70;100.00
56270;BME280;42176;43.240;27.880;2023-01-09T00:26:56;100824.06;;;7.66;100.00
56270;BME280;42176;43.240;27.880;2023-01-09T00:29:22;100825.84;;;7.67;100.00
56270;BME280;42176;43.240;27.880;2023-01-09T00:31:47;100836.41;;;7.61;100.00
56270;BME280;42176;43.240;27.880;2023-01-09T00:34:12;100835.50;;;7.73;100.00
56270;BME280;42176;43.240;27.880;2023-01-09T00:36:38;100820.56;;;7.73;100.00
56270;BME280;42176;43.240;27.880;2023-01-09T00:39:04;100836.41;;;7.73;100.00
56270;BME280;42176;43.240;27.880;2023-01-09T00:41:46;100821.44;;;7.69;100.00
56270;BME280;42176;43.240;27.880;2023-01-09T00:44:17;100826.72;;;7.71;100.00
56270;BME280;42176;43.240;27.880;2023-01-09T00:46:47;100819.69;;;7.70;100.00
56270;BME280;42176;43.240;27.880;2023-01-09T00:49:15;100817.06;;;7.67;100.00
56270;BME280;42176;43.240;27.880;2023-01-09T00:51:41;100827.59;;;7.68;100.00
56270;BME280;42176;43.240;27.880;2023-01-09T00:54:09;100822.31;;;7.81;100.00
56270;BME280;42176;43.240;27.880;2023-01-09T00:56:36;100812.66;;;7.73;100.00
56270;BME280;42176;43.240;27.880;2023-01-09T00:59:02;100807.38;;;7.69;100.00
56270;BME280;42176;43.240;27.880;2023-01-09T01:01:28;100807.38;;;7.84;100.00
56270;BME280;42176;43.240;27.880;2023-01-09T01:03:54;100801.22;;;7.71;100.00
56270;BME280;42176;43.240;27.880;2023-01-09T01:06:19;100798.56;;;7.56;100.00
56270;BME280;42176;43.240;27.880;2023-01-09T01:09:03;100795.94;;;7.62;100.00
56270;BME280;42176;43.240;27.880;2023-01-09T01:11:31;100793.28;;;7.76;100.00
56270;BME280;42176;43.240;27.880;2023-01-09T01:13:57;100790.66;;;7.71;100.00
56270;BME280;42176;43.240;27.880;2023-01-09T01:16:22;100775.69;;;7.62;100.00
56270;BME280;42176;43.240;27.880;2023-01-09T01:18:48;100781.84;;;7.63;100.00
56270;BME280;42176;43.240;27.880;2023-01-09T01:21:15;100780.97;;;7.72;100.00
56270;BME280;42176;43.240;27.880;2023-01-09T01:23:41;100761.63;;;7.64;100.00
56270;BME280;42176;43.240;27.880;2023-01-09T01:26:12;100769.53;;;7.53;100.00
56270;BME280;42176;43.240;27.880;2023-01-09T01:28:38;100751.97;;;7.58;100.00
56270;BME280;42176;43.240;27.880;2023-01-09T01:31:04;100764.28;;;7.62;100.00
56270;BME280;42176;43.240;27.880;2023-01-09T01:33:31;100758.09;;;7.61;100.00
56270;BME280;42176;43.240;27.880;2023-01-09T01:36:04;100748.41;;;7.65;100.00
56270;BME280;42176;43.240;27.880;2023-01-09T01:38:30;100751.06;;;7.56;100.00
56270;BME280;42176;43.240;27.880;2023-01-09T01:40:56;100751.94;;;7.52;100.00
56270;BME280;42176;43.240;27.880;2023-01-09T01:43:21;100743.16;;;7.59;100.00
56270;BME280;42176;43.240;27.880;2023-01-09T01:45:47;100740.50;;;7.50;100.00
56270;BME280;42176;43.240;27.880;2023-01-09T01:48:29;100739.63;;;7.54;100.00
56270;BME280;42176;43.240;27.880;2023-01-09T01:51:01;100725.59;;;7.53;100.00
56270;BME280;42176;43.240;27.880;2023-01-09T01:53:31;100730.84;;;7.49;100.00
56270;BME280;42176;43.240;27.880;2023-01-09T01:58:53;100727.31;;;7.53;100.00
56270;BME280;42176;43.240;27.880;2023-01-09T02:01:21;100734.38;;;7.57;100.00
56270;BME280;42176;43.240;27.880;2023-01-09T02:03:49;100728.22;;;7.45;100.00
56270;BME280;42176;43.240;27.880;2023-01-09T02:06:15;100722.03;;;7.37;100.00
56270;BME280;42176;43.240;27.880;2023-01-09T02:08:41;100718.53;;;7.44;100.00
56270;BME280;42176;43.240;27.880;2023-01-09T02:11:07;100712.38;;;7.36;100.00
56270;BME280;42176;43.240;27.880;2023-01-09T02:13:34;100716.75;;;7.37;100.00
56270;BME280;42176;43.240;27.880;2023-01-09T02:16:21;100715.00;;;7.36;100.00
56270;BME280;42176;43.240;27.880;2023-01-09T02:18:54;100708.88;;;7.32;100.00
56270;BME280;42176;43.240;27.880;2023-01-09T02:27:18;100705.31;;;7.32;100.00
56270;BME280;42176;43.240;27.880;2023-01-09T02:35:58;100705.34;;;7.41;100.00
56270;BME280;42176;43.240;27.880;2023-01-09T02:38:37;100693.91;;;7.42;100.00
56270;BME280;42176;43.240;27.880;2023-01-09T02:41:16;100693.91;;;7.39;100.00
56270;BME280;42176;43.240;27.880;2023-01-09T02:43:44;100697.44;;;7.44;100.00
56270;BME280;42176;43.240;27.880;2023-01-09T02:46:18;100702.69;;;7.35;100.00
56270;BME280;42176;43.240;27.880;2023-01-09T02:48:44;100697.41;;;7.32;100.00
56270;BME280;42176;43.240;27.880;2023-01-09T02:51:30;100699.19;;;7.27;100.00
56270;BME280;42176;43.240;27.880;2023-01-09T03:05:00;100687.78;;;7.43;100.00
56270;BME280;42176;43.240;27.880;2023-01-09T03:07:33;100691.28;;;7.53;100.00
56270;BME280;42176;43.240;27.880;2023-01-09T03:10:20;100693.03;;;7.42;100.00
56270;BME280;42176;43.240;27.880;2023-01-09T03:12:50;100672.81;;;7.45;100.00
56270;BME280;42176;43.240;27.880;2023-01-09T03:15:18;100688.63;;;7.41;100.00
56270;BME280;42176;43.240;27.880;2023-01-09T03:17:47;100692.13;;;7.47;100.00
56270;BME280;42176;43.240;27.880;2023-01-09T03:20:20;100691.25;;;7.56;100.00
56270;BME280;42176;43.240;27.880;2023-01-09T03:22:53;100692.13;;;7.47;100.00
56270;BME280;42176;43.240;27.880;2023-01-09T03:25:18;100693.03;;;7.64;100.00
56270;BME280;42176;43.240;27.880;2023-01-09T03:27:44;100692.16;;;7.51;100.00
56270;BME280;42176;43.240;27.880;2023-01-09T03:30:10;100678.09;;;7.45;100.00
56270;BME280;42176;43.240;27.880;2023-01-09T03:32:35;100689.53;;;7.60;100.00
56270;BME280;42176;43.240;27.880;2023-01-09T03:35:01;100693.91;;;7.55;100.00
56270;BME280;42176;43.240;27.880;2023-01-09T03:37:26;100690.38;;;7.53;100.00
56270;BME280;42176;43.240;27.880;2023-01-09T03:39:52;100685.13;;;7.53;100.00
56270;BME280;42176;43.240;27.880;2023-01-09T03:42:17;100693.91;;;7.52;100.00
56270;BME280;42176;43.240;27.880;2023-01-09T03:44:42;100695.69;;;7.59;100.00
56270;BME280;42176;43.240;27.880;2023-01-09T03:47:08;100695.66;;;7.56;100.00
56270;BME280;42176;43.240;27.880;2023-01-09T03:49:33;100696.56;;;7.47;100.00
56270;BME280;42176;43.240;27.880;2023-01-09T03:51:59;100697.41;;;7.51;100.00
56270;BME280;42176;43.240;27.880;2023-01-09T03:54:24;100694.78;;;7.60;100.00
56270;BME280;42176;43.240;27.880;2023-01-09T03:56:50;100697.44;;;7.54;100.00
56270;BME280;42176;43.240;27.880;2023-01-09T03:59:15;100694.78;;;7.51;100.00
56270;BME280;42176;43.240;27.880;2023-01-09T04:01:41;100704.47;;;7.52;100.00
56270;BME280;42176;43.240;27.880;2023-01-09T04:04:06;100702.69;;;7.66;100.00
56270;BME280;42176;43.240;27.880;2023-01-09T04:06:31;100704.47;;;7.61;100.00
56270;BME280;42176;43.240;27.880;2023-01-09T04:08:57;100694.75;;;7.63;100.00
56270;BME280;42176;43.240;27.880;2023-01-09T04:11:22;100692.16;;;7.54;100.00
56270;BME280;42176;43.240;27.880;2023-01-09T04:13:48;100701.84;;;7.61;100.00
56270;BME280;42176;43.240;27.880;2023-01-09T04:16:13;100701.81;;;7.59;100.00
56270;BME280;42176;43.240;27.880;2023-01-09T04:18:39;100700.94;;;7.56;100.00
56270;BME280;42176;43.240;27.880;2023-01-09T04:21:04;100699.19;;;7.58;100.00
56270;BME280;42176;43.240;27.880;2023-01-09T04:23:29;100695.69;;;7.62;100.00
56270;BME280;42176;43.240;27.880;2023-01-09T04:25:55;100684.22;;;7.63;100.00
56270;BME280;42176;43.240;27.880;2023-01-09T04:28:20;100686.00;;;7.61;100.00
56270;BME280;42176;43.240;27.880;2023-01-09T04:30:46;100685.13;;;7.59;100.00
56270;BME280;42176;43.240;27.880;2023-01-09T04:33:11;100686.88;;;7.60;100.00
56270;BME280;42176;43.240;27.880;2023-01-09T04:35:37;100684.22;;;7.58;100.00
56270;BME280;42176;43.240;27.880;2023-01-09T04:38:02;100688.66;;;7.42;100.00
56270;BME280;42176;43.240;27.880;2023-01-09T04:40:28;100681.59;;;7.35;100.00
56270;BME280;42176;43.240;27.880;2023-01-09T04:42:53;100686.88;;;7.47;100.00
56270;BME280;42176;43.240;27.880;2023-01-09T04:45:18;100642.03;;;7.15;100.00
56270;BME280;42176;43.240;27.880;2023-01-09T04:47:45;100674.56;;;7.43;100.00
56270;BME280;42176;43.240;27.880;2023-01-09T04:50:12;100668.41;;;7.40;100.00
56270;BME280;42176;43.240;27.880;2023-01-09T04:52:38;100669.28;;;7.40;100.00
56270;BME280;42176;43.240;27.880;2023-01-09T04:55:04;100678.09;;;7.45;100.00
56270;BME280;42176;43.240;27.880;2023-01-09T04:57:29;100682.47;;;7.60;100.00
56270;BME280;42176;43.240;27.880;2023-01-09T04:59:55;100686.84;;;7.63;100.00
56270;BME280;42176;43.240;27.880;2023-01-09T05:02:22;100683.34;;;7.66;100.00
56270;BME280;42176;43.240;27.880;2023-01-09T05:04:48;100683.31;;;7.75;100.00
56270;BME280;42176;43.240;27.880;2023-01-09T05:07:13;100692.13;;;7.75;100.00
56270;BME280;42176;43.240;27.880;2023-01-09T05:09:39;100689.50;;;7.75;100.00
56270;BME280;42176;43.240;27.880;2023-01-09T05:12:05;100676.28;;;7.66;100.00
56270;BME280;42176;43.240;27.880;2023-01-09T05:14:30;100678.06;;;7.64;100.00
56270;BME280;42176;43.240;27.880;2023-01-09T05:16:55;100673.66;;;7.63;100.00
56270;BME280;42176;43.240;27.880;2023-01-09T05:19:21;100671.03;;;7.66;100.00
56270;BME280;42176;43.240;27.880;2023-01-09T05:21:47;100678.06;;;7.59;100.00
56270;BME280;42176;43.240;27.880;2023-01-09T05:24:13;100662.25;;;7.52;100.00
56270;BME280;42176;43.240;27.880;2023-01-09T05:26:39;100673.66;;;7.69;100.00
56270;BME280;42176;43.240;27.880;2023-01-09T05:29:04;100672.78;;;7.75;100.00
56270;BME280;42176;43.240;27.880;2023-01-09T05:31:29;100669.28;;;7.62;100.00
56270;BME280;42176;43.240;27.880;2023-01-09T05:33:55;100674.53;;;7.68;100.00
56270;BME280;42176;43.240;27.880;2023-01-09T05:36:23;100674.53;;;7.65;100.00
56270;BME280;42176;43.240;27.880;2023-01-09T05:38:49;100667.53;;;7.61;100.00
56270;BME280;42176;43.240;27.880;2023-01-09T05:41:14;100676.28;;;7.63;100.00
56270;BME280;42176;43.240;27.880;2023-01-09T05:43:40;100674.56;;;7.62;100.00
56270;BME280;42176;43.240;27.880;2023-01-09T05:46:05;100673.69;;;7.54;100.00
56270;BME280;42176;43.240;27.880;2023-01-09T05:48:31;100678.09;;;7.55;100.00
56270;BME280;42176;43.240;27.880;2023-01-09T05:50:56;100688.63;;;7.61;100.00
56270;BME280;42176;43.240;27.880;2023-01-09T05:53:22;100691.25;;;7.70;100.00
56270;BME280;42176;43.240;27.880;2023-01-09T05:55:47;100688.59;;;7.64;100.00
56270;BME280;42176;43.240;27.880;2023-01-09T05:58:12;100680.66;;;7.92;100.00
56270;BME280;42176;43.240;27.880;2023-01-09T06:00:38;100663.84;;;8.21;100.00
56270;BME280;42176;43.240;27.880;2023-01-09T06:03:03;100640.91;;;8.35;100.00
56270;BME280;42176;43.240;27.880;2023-01-09T06:05:29;100682.06;;;8.84;100.00
56270;BME280;42176;43.240;27.880;2023-01-09T06:07:54;100674.91;;;9.02;100.00
56270;BME280;42176;43.240;27.880;2023-01-09T06:10:20;100672.84;;;9.40;100.00
56270;BME280;42176;43.240;27.880;2023-01-09T06:12:47;100677.59;;;8.97;100.00
56270;BME280;42176;43.240;27.880;2023-01-09T06:15:13;100681.00;;;9.15;100.00
56270;BME280;42176;43.240;27.880;2023-01-09T06:17:40;100688.19;;;8.94;100.00
56270;BME280;42176;43.240;27.880;2023-01-09T06:20:06;100667.19;;;8.66;100.00
56270;BME280;42176;43.240;27.880;2023-01-09T06:22:32;100678.72;;;8.51;100.00
56270;BME280;42176;43.240;27.880;2023-01-09T06:24:57;100668.16;;;8.42;100.00
56270;BME280;42176;43.240;27.880;2023-01-09T06:27:23;100672.59;;;8.38;100.00
56270;BME280;42176;43.240;27.880;2023-01-09T06:29:48;100670.84;;;8.34;100.00
56270;BME280;42176;43.240;27.880;2023-01-09T06:32:14;100662.94;;;8.30;100.00
56270;BME280;42176;43.240;27.880;2023-01-09T06:34:39;100676.13;;;8.34;100.00
56270;BME280;42176;43.240;27.880;2023-01-09T06:37:04;100673.50;;;8.28;100.00
56270;BME280;42176;43.240;27.880;2023-01-09T06:39:30;100682.28;;;8.33;100.00
56270;BME280;42176;43.240;27.880;2023-01-09T06:41:55;100677.00;;;8.33;100.00
56270;BME280;42176;43.240;27.880;2023-01-09T06:44:21;100668.19;;;8.36;100.00
56270;BME280;42176;43.240;27.880;2023-01-09T06:46:46;100661.19;;;8.32;100.00
56270;BME280;42176;43.240;27.880;2023-01-09T06:49:12;100671.75;;;8.26;100.00
56270;BME280;42176;43.240;27.880;2023-01-09T06:51:37;100661.25;;;8.13;100.00
56270;BME280;42176;43.240;27.880;2023-01-09T06:54:03;100668.19;;;8.36;100.00
56270;BME280;42176;43.240;27.880;2023-01-09T06:56:28;100681.41;;;8.41;100.00
56270;BME280;42176;43.240;27.880;2023-01-09T06:58:54;100672.50;;;8.63;100.00
56270;BME280;42176;43.240;27.880;2023-01-09T07:01:20;100678.50;;;8.92;100.00
56270;BME280;42176;43.240;27.880;2023-01-09T07:03:45;100674.03;;;9.02;100.00
56270;BME280;42176;43.240;27.880;2023-01-09T07:06:11;100649.72;;;9.60;100.00
56270;BME280;42176;43.240;27.880;2023-01-09T07:08:36;100667.72;;;11.38;92.26
56270;BME280;42176;43.240;27.880;2023-01-09T07:11:02;100663.19;;;10.90;90.65
56270;BME280;42176;43.240;27.880;2023-01-09T07:13:27;100657.03;;;10.19;93.20
56270;BME280;42176;43.240;27.880;2023-01-09T07:15:52;100666.34;;;9.78;94.62
56270;BME280;42176;43.240;27.880;2023-01-09T07:18:18;100665.25;;;10.71;90.46
56270;BME280;42176;43.240;27.880;2023-01-09T07:20:44;100664.50;;;11.21;85.00
56270;BME280;42176;43.240;27.880;2023-01-09T07:23:12;100665.50;;;10.53;89.75
56270;BME280;42176;43.240;27.880;2023-01-09T07:25:39;100660.69;;;10.79;88.92
56270;BME280;42176;43.240;27.880;2023-01-09T07:28:06;100659.53;;;10.99;87.82
56270;BME280;42176;43.240;27.880;2023-01-09T07:30:31;100654.22;;;10.33;90.23
56270;BME280;42176;43.240;27.880;2023-01-09T07:32:57;100654.47;;;10.12;92.86
56270;BME280;42176;43.240;27.880;2023-01-09T07:35:23;100660.91;;;9.90;94.93
56270;BME280;42176;43.240;27.880;2023-01-09T07:37:48;100650.44;;;9.78;96.70
56270;BME280;42176;43.240;27.880;2023-01-09T07:40:14;100649.84;;;10.28;94.62
56270;BME280;42176;43.240;27.880;2023-01-09T07:42:40;100647.03;;;12.08;84.08
56270;BME280;42176;43.240;27.880;2023-01-09T07:45:05;100655.91;;;12.07;80.45
56270;BME280;42176;43.240;27.880;2023-01-09T07:47:31;100663.06;;;10.98;84.03
56270;BME280;42176;43.240;27.880;2023-01-09T07:49:56;100651.56;;;10.32;86.77
56270;BME280;42176;43.240;27.880;2023-01-09T07:52:22;100662.09;;;11.05;84.21
56270;BME280;42176;43.240;27.880;2023-01-09T07:54:47;100653.53;;;12.37;80.76
56270;BME280;42176;43.240;27.880;2023-01-09T07:57:13;100640.72;;;12.95;74.96
56270;BME280;42176;43.240;27.880;2023-01-09T07:59:38;100648.91;;;12.02;77.19
56270;BME280;42176;43.240;27.880;2023-01-09T08:02:04;100647.16;;;10.98;83.16
56270;BME280;42176;43.240;27.880;2023-01-09T08:04:31;100645.88;;;11.74;80.17
56270;BME280;42176;43.240;27.880;2023-01-09T08:06:57;100652.44;;;11.00;84.74
56270;BME280;42176;43.240;27.880;2023-01-09T08:09:22;100640.91;;;12.04;78.35
56270;BME280;42176;43.240;27.880;2023-01-09T08:11:48;100642.50;;;12.55;77.31
56270;BME280;42176;43.240;27.880;2023-01-09T08:14:14;100643.25;;;13.00;73.03
56270;BME280;42176;43.240;27.880;2023-01-09T08:16:40;100648.75;;;11.62;77.97
56270;BME280;42176;43.240;27.880;2023-01-09T08:19:05;100646.34;;;10.94;81.50
56270;BME280;42176;43.240;27.880;2023-01-09T08:21:31;100640.47;;;11.79;79.33
56270;BME280;42176;43.240;27.880;2023-01-09T08:23:56;100649.63;;;11.62;80.04
56270;BME280;42176;43.240;27.880;2023-01-09T08:26:22;100657.06;;;10.87;83.34
56270;BME280;42176;43.240;27.880;2023-01-09T08:28:47;100656.22;;;10.85;84.52
56270;BME280;42176;43.240;27.880;2023-01-09T08:31:13;100641.19;;;11.38;84.66
56270;BME280;42176;43.240;27.880;2023-01-09T08:33:39;100650.47;;;11.12;83.40
56270;BME280;42176;43.240;27.880;2023-01-09T08:36:05;100649.44;;;10.62;88.77
56270;BME280;42176;43.240;27.880;2023-01-09T08:38:30;100644.69;;;10.18;91.74
56270;BME280;42176;43.240;27.880;2023-01-09T08:40:56;100641.16;;;10.16;93.22
56270;BME280;42176;43.240;27.880;2023-01-09T08:43:21;100650.91;;;10.16;93.61
56270;BME280;42176;43.240;27.880;2023-01-09T08:46:16;100633.41;;;10.02;94.14
56270;BME280;42176;43.240;27.880;2023-01-09T08:49:02;100628.09;;;10.02;95.46
56270;BME280;42176;43.240;27.880;2023-01-09T08:51:28;100627.25;;;9.99;94.97
56270;BME280;42176;43.240;27.880;2023-01-09T08:53:53;100619.44;;;9.86;95.39
56270;BME280;42176;43.240;27.880;2023-01-09T08:56:19;100613.38;;;9.78;95.89
56270;BME280;42176;43.240;27.880;2023-01-09T08:58:44;100622.50;;;9.49;95.49
56270;BME280;42176;43.240;27.880;2023-01-09T09:01:10;100626.28;;;9.22;97.05
56270;BME280;42176;43.240;27.880;2023-01-09T09:03:35;100619.09;;;9.35;95.56
56270;BME280;42176;43.240;27.880;2023-01-09T09:06:01;100609.28;;;9.44;95.81
56270;BME280;42176;43.240;27.880;2023-01-09T09:08:26;100615.53;;;9.39;97.76
56270;BME280;42176;43.240;27.880;2023-01-09T09:10:51;100621.44;;;9.66;97.31
56270;BME280;42176;43.240;27.880;2023-01-09T09:13:17;100604.75;;;9.57;96.14
56270;BME280;42176;43.240;27.880;2023-01-09T09:15:42;100599.47;;;9.57;93.90
56270;BME280;42176;43.240;27.880;2023-01-09T09:18:08;100579.25;;;9.50;93.81
56270;BME280;42176;43.240;27.880;2023-01-09T09:20:36;100583.88;;;9.29;98.16
56270;BME280;42176;43.240;27.880;2023-01-09T09:23:03;100591.81;;;9.29;99.23
56270;BME280;42176;43.240;27.880;2023-01-09T09:25:28;100568.03;;;9.26;100.00
56270;BME280;42176;43.240;27.880;2023-01-09T09:27:54;100574.78;;;9.55;99.88
56270;BME280;42176;43.240;27.880;2023-01-09T09:30:22;100581.63;;;9.75;98.56
56270;BME280;42176;43.240;27.880;2023-01-09T09:32:49;100562.56;;;9.45;98.78
56270;BME280;42176;43.240;27.880;2023-01-09T09:35:15;100585.66;;;9.27;100.00
56270;BME280;42176;43.240;27.880;2023-01-09T09:37:59;100576.91;;;9.19;100.00
56270;BME280;42176;43.240;27.880;2023-01-09T09:40:55;100575.22;;;9.09;100.00
56270;BME280;42176;43.240;27.880;2023-01-09T09:46:27;100556.81;;;9.82;99.88
56270;BME280;42176;43.240;27.880;2023-01-09T09:49:25;100546.50;;;9.60;98.89
56270;BME280;42176;43.240;27.880;2023-01-09T09:52:16;100550.25;;;9.41;98.57
56270;BME280;42176;43.240;27.880;2023-01-09T09:54:48;100552.94;;;9.36;100.00
56270;BME280;42176;43.240;27.880;2023-01-09T09:57:18;100534.06;;;9.66;97.53
56270;BME280;42176;43.240;27.880;2023-01-09T09:59:47;100548.44;;;9.46;96.84
56270;BME280;42176;43.240;27.880;2023-01-09T10:02:28;100545.69;;;9.54;98.98
56270;BME280;42176;43.240;27.880;2023-01-09T10:05:28;100535.59;;;9.85;98.61
56270;BME280;42176;43.240;27.880;2023-01-09T10:07:56;100533.31;;;9.54;98.59
56270;BME280;42176;43.240;27.880;2023-01-09T10:12:58;100526.97;;;9.71;97.59
56270;BME280;42176;43.240;27.880;2023-01-09T10:26:00;100517.44;;;9.54;98.97
56270;BME280;42176;43.240;27.880;2023-01-09T10:34:05;100506.91;;;9.51;97.14
56270;BME280;42176;43.240;27.880;2023-01-09T10:44:52;100497.38;;;9.35;100.00
56270;BME280;42176;43.240;27.880;2023-01-09T10:47:29;100474.53;;;9.27;100.00
56270;BME280;42176;43.240;27.880;2023-01-09T10:50:20;100480.75;;;9.23;100.00
56270;BME280;42176;43.240;27.880;2023-01-09T10:52:48;100481.47;;;9.38;100.00
56270;BME280;42176;43.240;27.880;2023-01-09T10:55:52;100476.88;;;9.52;100.00
56270;BME280;42176;43.240;27.880;2023-01-09T10:58:19;100469.06;;;9.43;100.00
56270;BME280;42176;43.240;27.880;2023-01-09T11:00:46;100477.88;;;9.45;100.00
56270;BME280;42176;43.240;27.880;2023-01-09T11:03:14;100462.00;;;9.45;100.00
56270;BME280;42176;43.240;27.880;2023-01-09T11:05:41;100470.84;;;9.41;100.00
56270;BME280;42176;43.240;27.880;2023-01-09T11:08:11;100478.09;;;9.23;100.00
56270;BME280;42176;43.240;27.880;2023-01-09T11:13:44;100470.34;;;9.09;100.00
56270;BME280;42176;43.240;27.880;2023-01-09T11:16:27;100456.94;;;9.23;100.00
56270;BME280;42176;43.240;27.880;2023-01-09T11:18:55;100465.56;;;9.41;100.00
56270;BME280;42176;43.240;27.880;2023-01-09T11:21:36;100455.88;;;9.41;100.00
56270;BME280;42176;43.240;27.880;2023-01-09T11:26:42;100437.09;;;9.62;100.00
56270;BME280;42176;43.240;27.880;2023-01-09T11:29:25;100451.97;;;9.69;100.00
56270;BME280;42176;43.240;27.880;2023-01-09T11:31:58;100449.06;;;9.90;100.00
56270;BME280;42176;43.240;27.880;2023-01-09T11:34:26;100445.00;;;9.65;100.00
56270;BME280;42176;43.240;27.880;2023-01-09T11:37:06;100436.31;;;9.55;100.00
56270;BME280;42176;43.240;27.880;2023-01-09T11:39:34;100428.31;;;9.56;100.00
56270;BME280;42176;43.240;27.880;2023-01-09T11:42:05;100437.09;;;9.62;100.00
56270;BME280;42176;43.240;27.880;2023-01-09T11:44:32;100435.44;;;9.51;100.00
56270;BME280;42176;43.240;27.880;2023-01-09T11:46:58;100426.03;;;9.27;100.00
56270;BME280;42176;43.240;27.880;2023-01-09T11:49:30;100433.84;;;9.38;100.00
56270;BME280;42176;43.240;27.880;2023-01-09T11:52:16;100433.75;;;9.47;100.00
56270;BME280;42176;43.240;27.880;2023-01-09T11:55:14;100424.97;;;9.45;100.00
56270;BME280;42176;43.240;27.880;2023-01-09T11:57:42;100437.06;;;9.65;100.00
56270;BME280;42176;43.240;27.880;2023-01-09T12:00:46;100424.75;;;9.60;100.00
56270;BME280;42176;43.240;27.880;2023-01-09T12:03:28;100430.13;;;9.54;100.00
56270;BME280;42176;43.240;27.880;2023-01-09T12:06:16;100419.81;;;9.33;100.00
56270;BME280;42176;43.240;27.880;2023-01-09T12:09:05;100421.50;;;9.37;100.00
56270;BME280;42176;43.240;27.880;2023-01-09T12:19:39;100413.59;;;9.35;100.00
56270;BME280;42176;43.240;27.880;2023-01-09T12:22:47;100418.78;;;9.46;100.00
56270;BME280;42176;43.240;27.880;2023-01-09T12:36:28;100400.50;;;9.24;100.00
56270;BME280;42176;43.240;27.880;2023-01-09T12:41:57;100390.72;;;9.31;100.00
56270;BME280;42176;43.240;27.880;2023-01-09T12:52:23;100395.97;;;9.34;100.00
56270;BME280;42176;43.240;27.880;2023-01-09T12:55:00;100396.91;;;9.32;100.00
56270;BME280;42176;43.240;27.880;2023-01-09T12:57:51;100385.56;;;9.22;100.00
56270;BME280;42176;43.240;27.880;2023-01-09T13:03:24;100403.22;;;9.20;100.00
56270;BME280;42176;43.240;27.880;2023-01-09T13:05:52;100411.13;;;9.21;100.00
56270;BME280;42176;43.240;27.880;2023-01-09T13:08:28;100397.09;;;9.16;100.00
56270;BME280;42176;43.240;27.880;2023-01-09T13:10:58;100400.69;;;9.09;100.00
56270;BME280;42176;43.240;27.880;2023-01-09T13:13:40;100409.28;;;9.29;100.00
56270;BME280;42176;43.240;27.880;2023-01-09T13:16:13;100402.00;;;9.47;100.00
56270;BME280;42176;43.240;27.880;2023-01-09T13:21:11;100414.59;;;9.26;100.00
56270;BME280;42176;43.240;27.880;2023-01-09T13:24:06;100405.00;;;9.18;100.00
56270;BME280;42176;43.240;27.880;2023-01-09T13:26:50;100404.25;;;9.05;100.00
56270;BME280;42176;43.240;27.880;2023-01-09T13:29:21;100399.66;;;9.22;100.00
56270;BME280;42176;43.240;27.880;2023-01-09T13:34:31;100400.66;;;9.12;100.00
56270;BME280;42176;43.240;27.880;2023-01-09T13:36:59;100395.53;;;8.99;100.00
56270;BME280;42176;43.240;27.880;2023-01-09T13:39:29;100400.78;;;9.03;100.00
56270;BME280;42176;43.240;27.880;2023-01-09T13:41:59;100388.69;;;8.77;100.00
56270;BME280;42176;43.240;27.880;2023-01-09T13:44:44;100399.22;;;8.83;100.00
56270;BME280;42176;43.240;27.880;2023-01-09T13:47:23;100401.91;;;8.78;100.00
56270;BME280;42176;43.240;27.880;2023-01-09T13:57:41;100391.69;;;8.35;100.00
56270;BME280;42176;43.240;27.880;2023-01-09T14:08:02;100376.78;;;8.32;100.00
56270;BME280;42176;43.240;27.880;2023-01-09T14:10:48;100382.03;;;8.35;100.00
56270;BME280;42176;43.240;27.880;2023-01-09T14:13:15;100385.59;;;8.28;100.00
56270;BME280;42176;43.240;27.880;2023-01-09T14:15:43;100376.84;;;8.21;100.00
56270;BME280;42176;43.240;27.880;2023-01-09T14:18:18;100368.09;;;8.18;100.00
56270;BME280;42176;43.240;27.880;2023-01-09T14:21:08;100357.50;;;8.24;100.00
56270;BME280;42176;43.240;27.880;2023-01-09T14:23:57;100366.28;;;8.23;100.00
56270;BME280;42176;43.240;27.880;2023-01-09T14:29:38;100354.09;;;8.06;100.00
56270;BME280;42176;43.240;27.880;2023-01-09T14:37:33;100349.69;;;8.08;100.00
56270;BME280;42176;43.240;27.880;2023-01-09T14:39:59;100355.00;;;8.04;100.00
56270;BME280;42176;43.240;27.880;2023-01-09T14:42:29;100338.28;;;8.03;100.00
56270;BME280;42176;43.240;27.880;2023-01-09T14:45:02;100344.53;;;7.93;100.00
56270;BME280;42176;43.240;27.880;2023-01-09T14:47:48;100334.81;;;7.98;100.00
56270;BME280;42176;43.240;27.880;2023-01-09T14:50:24;100335.66;;;8.00;100.00
56270;BME280;42176;43.240;27.880;2023-01-09T14:55:32;100331.41;;;7.84;100.00
56270;BME280;42176;43.240;27.880;2023-01-09T14:58:30;100337.50;;;7.87;100.00